sensor_id;sensor_type;location;lat;lon;timestamp;pressure;altitude;pressure_sealevel;temperature;humidity
24752;BME280;27246;52.376;4.628;2023-02-04T00:01:57;103184.84;;;7.68;97.99
24752;BME280;27246;52.376;4.628;2023-02-04T00:06:58;103186.41;;;7.72;98.14
24752;BME280;27246;52.376;4.628;2023-02-04T00:12:00;103185.97;;;7.78;98.02
24752;BME280;27246;52.376;4.628;2023-02-04T00:17:02;103194.97;;;7.67;98.45
24752;BME280;27246;52.376;4.628;2023-02-04T00:22:03;103199.34;;;7.70;98.82
24752;BME280;27246;52.376;4.628;2023-02-04T00:27:05;103193.53;;;7.74;99.05
24752;BME280;27246;52.376;4.628;2023-02-04T00:32:07;103208.69;;;7.67;99.17
24752;BME280;27246;52.376;4.628;2023-02-04T00:37:09;103203.97;;;7.69;98.97
24752;BME280;27246;52.376;4.628;2023-02-04T00:42:11;103207.38;;;7.73;98.69
24752;BME280;27246;52.376;4.628;2023-02-04T00:47:13;103204.81;;;7.70;98.87
24752;BME280;27246;52.376;4.628;2023-02-04T00:52:15;103202.00;;;7.71;99.14
24752;BME280;27246;52.376;4.628;2023-02-04T00:57:17;103209.97;;;7.74;98.58
24752;BME280;27246;52.376;4.628;2023-02-04T01:02:20;103216.25;;;7.76;98.35
24752;BME280;27246;52.376;4.628;2023-02-04T01:07:21;103208.34;;;7.72;97.86
24752;BME280;27246;52.376;4.628;2023-02-04T01:12:23;103218.44;;;7.71;97.40
24752;BME280;27246;52.376;4.628;2023-02-04T01:17:27;103229.63;;;7.68;97.24
24752;BME280;27246;52.376;4.628;2023-02-04T01:22:29;103227.09;;;7.65;96.39
24752;BME280;27246;52.376;4.628;2023-02-04T01:27:31;103228.06;;;7.64;96.65
24752;BME280;27246;52.376;4.628;2023-02-04T01:32:33;103239.97;;;7.65;96.82
24752;BME280;27246;52.376;4.628;2023-02-04T01:37:34;103250.03;;;7.64;97.21
24752;BME280;27246;52.376;4.628;2023-02-04T01:42:37;103266.91;;;7.58;97.57
24752;BME280;27246;52.376;4.628;2023-02-04T01:47:39;103265.72;;;7.62;98.25
24752;BME280;27246;52.376;4.628;2023-02-04T01:52:41;103262.31;;;7.58;98.14
24752;BME280;27246;52.376;4.628;2023-02-04T01:57:44;103264.84;;;7.61;98.76
24752;BME280;27246;52.376;4.628;2023-02-04T02:02:49;103271.78;;;7.67;99.16
24752;BME280;27246;52.376;4.628;2023-02-04T02:07:54;103270.78;;;7.68;99.15
24752;BME280;27246;52.376;4.628;2023-02-04T02:12:57;103268.81;;;7.70;99.30
24752;BME280;27246;52.376;4.628;2023-02-04T02:17:59;103266.97;;;7.71;99.55
24752;BME280;27246;52.376;4.628;2023-02-04T02:23:13;103277.03;;;7.70;99.25
24752;BME280;27246;52.376;4.628;2023-02-04T02:28:20;103284.28;;;7.71;99.80
24752;BME280;27246;52.376;4.628;2023-02-04T02:33:22;103283.28;;;7.72;99.77
24752;BME280;27246;52.376;4.628;2023-02-04T02:38:25;103294.25;;;7.72;99.18
24752;BME280;27246;52.376;4.628;2023-02-04T02:43:28;103287.03;;;7.71;99.63
24752;BME280;27246;52.376;4.628;2023-02-04T02:48:31;103282.09;;;7.76;99.36
24752;BME280;27246;52.376;4.628;2023-02-04T02:53:33;103281.22;;;7.76;99.04
24752;BME280;27246;52.376;4.628;2023-02-04T02:58:35;103283.88;;;7.77;99.20
24752;BME280;27246;52.376;4.628;2023-02-04T03:03:55;103287.47;;;7.78;98.99
24752;BME280;27246;52.376;4.628;2023-02-04T03:08:57;103282.66;;;7.81;99.31
24752;BME280;27246;52.376;4.628;2023-02-04T03:13:59;103290.03;;;7.81;99.27
24752;BME280;27246;52.376;4.628;2023-02-04T03:19:05;103288.25;;;7.80;99.08
24752;BME280;27246;52.376;4.628;2023-02-04T03:24:08;103294.84;;;7.77;99.23
24752;BME280;27246;52.376;4.628;2023-02-04T03:29:11;103292.63;;;7.82;99.53
24752;BME280;27246;52.376;4.628;2023-02-04T03:34:13;103304.63;;;7.81;98.93
24752;BME280;27246;52.376;4.628;2023-02-04T03:39:14;103312.84;;;7.81;99.12
24752;BME280;27246;52.376;4.628;2023-02-04T03:44:16;103310.88;;;7.84;99.35
24752;BME280;27246;52.376;4.628;2023-02-04T03:49:19;103300.78;;;7.84;98.87
24752;BME280;27246;52.376;4.628;2023-02-04T03:54:20;103285.50;;;7.80;99.37
24752;BME280;27246;52.376;4.628;2023-02-04T03:59:39;103297.69;;;7.76;99.60
24752;BME280;27246;52.376;4.628;2023-02-04T04:04:41;103305.47;;;7.69;99.38
24752;BME280;27246;52.376;4.628;2023-02-04T04:09:42;103307.97;;;7.72;99.71
24752;BME280;27246;52.376;4.628;2023-02-04T04:14:44;103313.28;;;7.75;99.38
24752;BME280;27246;52.376;4.628;2023-02-04T04:19:46;103308.66;;;7.76;99.55
24752;BME280;27246;52.376;4.628;2023-02-04T04:24:49;103311.31;;;7.77;99.62
24752;BME280;27246;52.376;4.628;2023-02-04T04:29:51;103311.06;;;7.68;99.71
24752;BME280;27246;52.376;4.628;2023-02-04T04:34:54;103315.44;;;7.70;100.00
24752;BME280;27246;52.376;4.628;2023-02-04T04:39:56;103325.44;;;7.71;99.79
24752;BME280;27246;52.376;4.628;2023-02-04T04:44:57;103328.50;;;7.67;99.62
24752;BME280;27246;52.376;4.628;2023-02-04T04:49:59;103324.88;;;7.66;100.00
24752;BME280;27246;52.376;4.628;2023-02-04T04:55:00;103328.03;;;7.60;100.00
24752;BME280;27246;52.376;4.628;2023-02-04T05:00:03;103335.22;;;7.48;99.87
24752;BME280;27246;52.376;4.628;2023-02-04T05:05:05;103329.84;;;7.47;100.00
24752;BME280;27246;52.376;4.628;2023-02-04T05:10:08;103339.91;;;7.46;100.00
24752;BME280;27246;52.376;4.628;2023-02-04T05:15:10;103340.91;;;7.45;100.00
24752;BME280;27246;52.376;4.628;2023-02-04T05:20:11;103342.78;;;7.45;100.00
24752;BME280;27246;52.376;4.628;2023-02-04T05:25:13;103351.03;;;7.45;100.00
24752;BME280;27246;52.376;4.628;2023-02-04T05:30:17;103352.84;;;7.44;100.00
24752;BME280;27246;52.376;4.628;2023-02-04T05:35:18;103354.72;;;7.44;100.00
24752;BME280;27246;52.376;4.628;2023-02-04T05:40:20;103366.56;;;7.44;100.00
24752;BME280;27246;52.376;4.628;2023-02-04T05:45:22;103357.56;;;7.42;100.00
24752;BME280;27246;52.376;4.628;2023-02-04T05:50:24;103360.31;;;7.42;100.00
24752;BME280;27246;52.376;4.628;2023-02-04T05:55:41;103369.53;;;7.41;100.00
24752;BME280;27246;52.376;4.628;2023-02-04T06:00:43;103377.66;;;7.43;100.00
24752;BME280;27246;52.376;4.628;2023-02-04T06:05:44;103381.06;;;7.46;100.00
24752;BME280;27246;52.376;4.628;2023-02-04T06:10:46;103401.16;;;7.47;100.00
24752;BME280;27246;52.376;4.628;2023-02-04T06:15:48;103397.41;;;7.48;100.00
24752;BME280;27246;52.376;4.628;2023-02-04T06:20:49;103396.47;;;7.49;100.00
24752;BME280;27246;52.376;4.628;2023-02-04T06:25:51;103395.88;;;7.44;100.00
24752;BME280;27246;52.376;4.628;2023-02-04T06:30:53;103405.09;;;7.43;100.00
24752;BME280;27246;52.376;4.628;2023-02-04T06:35:55;103410.44;;;7.44;100.00
24752;BME280;27246;52.376;4.628;2023-02-04T06:40:56;103421.53;;;7.43;100.00
24752;BME280;27246;52.376;4.628;2023-02-04T06:45:58;103417.81;;;7.44;100.00
24752;BME280;27246;52.376;4.628;2023-02-04T06:51:00;103416.16;;;7.41;100.00
24752;BME280;27246;52.376;4.628;2023-02-04T06:56:01;103424.16;;;7.44;100.00
24752;BME280;27246;52.376;4.628;2023-02-04T07:01:03;103432.38;;;7.44;100.00
24752;BME280;27246;52.376;4.628;2023-02-04T07:06:06;103434.16;;;7.45;100.00
24752;BME280;27246;52.376;4.628;2023-02-04T07:11:08;103429.34;;;7.34;100.00
24752;BME280;27246;52.376;4.628;2023-02-04T07:16:10;103436.41;;;7.38;100.00
24752;BME280;27246;52.376;4.628;2023-02-04T07:21:12;103437.69;;;7.33;100.00
24752;BME280;27246;52.376;4.628;2023-02-04T07:26:13;103450.31;;;7.35;100.00
24752;BME280;27246;52.376;4.628;2023-02-04T07:31:15;103452.84;;;7.38;100.00
24752;BME280;27246;52.376;4.628;2023-02-04T07:36:17;103466.28;;;7.43;100.00
24752;BME280;27246;52.376;4.628;2023-02-04T07:41:18;103468.72;;;7.48;100.00
24752;BME280;27246;52.376;4.628;2023-02-04T07:46:21;103485.78;;;7.53;100.00
24752;BME280;27246;52.376;4.628;2023-02-04T07:51:23;103484.59;;;7.57;100.00
24752;BME280;27246;52.376;4.628;2023-02-04T07:56:24;103489.22;;;7.56;100.00
24752;BME280;27246;52.376;4.628;2023-02-04T08:01:26;103488.03;;;7.60;100.00
24752;BME280;27246;52.376;4.628;2023-02-04T08:06:28;103492.53;;;7.61;100.00
24752;BME280;27246;52.376;4.628;2023-02-04T08:11:29;103495.84;;;7.67;100.00
24752;BME280;27246;52.376;4.628;2023-02-04T08:16:31;103502.78;;;7.72;100.00
24752;BME280;27246;52.376;4.628;2023-02-04T08:21:33;103512.50;;;7.64;100.00
24752;BME280;27246;52.376;4.628;2023-02-04T08:26:34;103519.75;;;7.50;100.00
24752;BME280;27246;52.376;4.628;2023-02-04T08:31:36;103519.25;;;7.58;100.00
24752;BME280;27246;52.376;4.628;2023-02-04T08:36:42;103523.00;;;7.57;100.00
24752;BME280;27246;52.376;4.628;2023-02-04T08:41:45;103535.72;;;7.58;100.00
24752;BME280;27246;52.376;4.628;2023-02-04T08:46:46;103543.16;;;7.56;100.00
24752;BME280;27246;52.376;4.628;2023-02-04T08:51:48;103532.00;;;7.59;100.00
24752;BME280;27246;52.376;4.628;2023-02-04T08:56:50;103530.16;;;7.59;100.00
24752;BME280;27246;52.376;4.628;2023-02-04T09:01:51;103537.09;;;7.65;100.00
24752;BME280;27246;52.376;4.628;2023-02-04T09:06:53;103545.72;;;7.73;100.00
24752;BME280;27246;52.376;4.628;2023-02-04T09:11:55;103546.81;;;7.71;100.00
24752;BME280;27246;52.376;4.628;2023-02-04T09:16:57;103550.81;;;7.79;100.00
24752;BME280;27246;52.376;4.628;2023-02-04T09:21:58;103550.81;;;7.79;100.00
24752;BME280;27246;52.376;4.628;2023-02-04T09:27:00;103559.81;;;7.81;100.00
24752;BME280;27246;52.376;4.628;2023-02-04T09:32:02;103561.19;;;7.74;100.00
24752;BME280;27246;52.376;4.628;2023-02-04T09:37:03;103561.56;;;7.82;100.00
24752;BME280;27246;52.376;4.628;2023-02-04T09:42:06;103575.69;;;7.91;100.00
24752;BME280;27246;52.376;4.628;2023-02-04T09:47:11;103571.38;;;7.87;100.00
24752;BME280;27246;52.376;4.628;2023-02-04T09:52:17;103569.59;;;7.86;100.00
24752;BME280;27246;52.376;4.628;2023-02-04T09:57:19;103581.84;;;7.94;100.00
24752;BME280;27246;52.376;4.628;2023-02-04T10:02:25;103593.34;;;7.87;100.00
24752;BME280;27246;52.376;4.628;2023-02-04T10:07:27;103606.84;;;7.90;100.00
24752;BME280;27246;52.376;4.628;2023-02-04T10:12:30;103606.44;;;7.96;100.00
24752;BME280;27246;52.376;4.628;2023-02-04T10:17:32;103599.78;;;8.00;100.00
24752;BME280;27246;52.376;4.628;2023-02-04T10:22:34;103611.84;;;7.97;100.00
24752;BME280;27246;52.376;4.628;2023-02-04T10:27:46;103607.63;;;8.06;100.00
24752;BME280;27246;52.376;4.628;2023-02-04T10:32:49;103612.69;;;8.12;100.00
24752;BME280;27246;52.376;4.628;2023-02-04T10:38:05;103613.19;;;8.05;100.00
24752;BME280;27246;52.376;4.628;2023-02-04T10:43:15;103613.97;;;8.07;100.00
24752;BME280;27246;52.376;4.628;2023-02-04T10:48:18;103610.44;;;8.05;100.00
24752;BME280;27246;52.376;4.628;2023-02-04T10:53:21;103609.41;;;8.07;100.00
24752;BME280;27246;52.376;4.628;2023-02-04T10:58:42;103616.03;;;8.17;100.00
24752;BME280;27246;52.376;4.628;2023-02-04T11:03:44;103611.22;;;8.07;100.00
24752;BME280;27246;52.376;4.628;2023-02-04T11:08:49;103603.22;;;8.04;100.00
24752;BME280;27246;52.376;4.628;2023-02-04T11:19:04;103605.19;;;8.01;99.36
24752;BME280;27246;52.376;4.628;2023-02-04T11:29:29;103598.41;;;8.07;98.26
24752;BME280;27246;52.376;4.628;2023-02-04T11:34:47;103592.28;;;8.16;97.85
24752;BME280;27246;52.376;4.628;2023-02-04T11:39:49;103585.81;;;8.32;97.82
24752;BME280;27246;52.376;4.628;2023-02-04T11:45:11;103597.28;;;8.24;96.12
24752;BME280;27246;52.376;4.628;2023-02-04T11:50:21;103588.22;;;8.36;95.72
24752;BME280;27246;52.376;4.628;2023-02-04T11:55:25;103599.25;;;8.49;95.47
24752;BME280;27246;52.376;4.628;2023-02-04T12:00:31;103597.28;;;8.51;96.10
24752;BME280;27246;52.376;4.628;2023-02-04T12:05:43;103595.53;;;8.50;94.57
24752;BME280;27246;52.376;4.628;2023-02-04T12:10:50;103603.59;;;8.53;94.54
24752;BME280;27246;52.376;4.628;2023-02-04T12:16:03;103591.94;;;8.50;94.61
24752;BME280;27246;52.376;4.628;2023-02-04T12:21:11;103604.75;;;8.49;95.31
24752;BME280;27246;52.376;4.628;2023-02-04T12:26:14;103605.94;;;8.45;96.07
24752;BME280;27246;52.376;4.628;2023-02-04T12:31:24;103608.91;;;8.42;98.47
24752;BME280;27246;52.376;4.628;2023-02-04T12:36:26;103604.75;;;8.49;100.00
24752;BME280;27246;52.376;4.628;2023-02-04T12:41:30;103600.88;;;8.39;100.00
24752;BME280;27246;52.376;4.628;2023-02-04T12:46:31;103610.97;;;8.38;100.00
24752;BME280;27246;52.376;4.628;2023-02-04T12:51:33;103612.06;;;8.36;100.00
24752;BME280;27246;52.376;4.628;2023-02-04T12:56:35;103602.97;;;8.35;100.00
24752;BME280;27246;52.376;4.628;2023-02-04T13:01:37;103593.13;;;8.46;100.00
24752;BME280;27246;52.376;4.628;2023-02-04T13:06:38;103576.31;;;8.50;100.00
24752;BME280;27246;52.376;4.628;2023-02-04T13:11:40;103576.22;;;8.52;100.00
24752;BME280;27246;52.376;4.628;2023-02-04T13:16:42;103574.16;;;8.55;99.66
24752;BME280;27246;52.376;4.628;2023-02-04T13:21:43;103574.03;;;8.57;99.07
24752;BME280;27246;52.376;4.628;2023-02-04T13:26:45;103573.50;;;8.65;98.80
24752;BME280;27246;52.376;4.628;2023-02-04T13:31:47;103578.44;;;8.59;98.08
24752;BME280;27246;52.376;4.628;2023-02-04T13:36:50;103575.91;;;8.56;97.39
24752;BME280;27246;52.376;4.628;2023-02-04T13:41:51;103573.72;;;8.61;98.08
24752;BME280;27246;52.376;4.628;2023-02-04T13:46:53;103572.69;;;8.50;96.51
24752;BME280;27246;52.376;4.628;2023-02-04T13:51:55;103566.09;;;8.52;97.36
24752;BME280;27246;52.376;4.628;2023-02-04T13:56:56;103566.28;;;8.49;96.44
24752;BME280;27246;52.376;4.628;2023-02-04T14:01:58;103556.25;;;8.63;96.33
24752;BME280;27246;52.376;4.628;2023-02-04T14:07:00;103573.19;;;8.69;95.46
24752;BME280;27246;52.376;4.628;2023-02-04T14:12:01;103566.28;;;8.49;95.57
24752;BME280;27246;52.376;4.628;2023-02-04T14:17:03;103572.22;;;8.43;97.21
24752;BME280;27246;52.376;4.628;2023-02-04T14:22:05;103576.31;;;8.50;97.78
24752;BME280;27246;52.376;4.628;2023-02-04T14:27:09;103569.88;;;8.37;97.36
24752;BME280;27246;52.376;4.628;2023-02-04T14:32:10;103565.84;;;8.43;98.27
24752;BME280;27246;52.376;4.628;2023-02-04T14:37:12;103574.19;;;8.41;98.90
24752;BME280;27246;52.376;4.628;2023-02-04T14:42:14;103568.84;;;8.52;98.55
24752;BME280;27246;52.376;4.628;2023-02-04T14:47:15;103568.28;;;8.47;97.56
24752;BME280;27246;52.376;4.628;2023-02-04T14:52:17;103565.75;;;8.44;98.00
24752;BME280;27246;52.376;4.628;2023-02-04T14:57:20;103568.75;;;8.54;97.90
24752;BME280;27246;52.376;4.628;2023-02-04T15:02:22;103568.00;;;8.65;97.41
24752;BME280;27246;52.376;4.628;2023-02-04T15:07:25;103581.81;;;8.50;96.66
24752;BME280;27246;52.376;4.628;2023-02-04T15:12:26;103589.22;;;8.63;96.75
24752;BME280;27246;52.376;4.628;2023-02-04T15:17:28;103591.97;;;8.63;96.92
24752;BME280;27246;52.376;4.628;2023-02-04T15:22:30;103594.19;;;8.43;96.94
24752;BME280;27246;52.376;4.628;2023-02-04T15:27:32;103597.00;;;8.56;96.98
24752;BME280;27246;52.376;4.628;2023-02-04T15:32:34;103590.81;;;8.52;96.13
24752;BME280;27246;52.376;4.628;2023-02-04T15:37:35;103604.16;;;8.58;96.01
24752;BME280;27246;52.376;4.628;2023-02-04T15:42:37;103600.84;;;8.53;96.32
24752;BME280;27246;52.376;4.628;2023-02-04T15:47:39;103599.25;;;8.64;96.38
24752;BME280;27246;52.376;4.628;2023-02-04T15:52:40;103607.31;;;8.52;96.81
24752;BME280;27246;52.376;4.628;2023-02-04T15:57:42;103609.66;;;8.58;97.21
24752;BME280;27246;52.376;4.628;2023-02-04T16:02:44;103617.44;;;8.52;97.90
24752;BME280;27246;52.376;4.628;2023-02-04T16:07:46;103612.63;;;8.55;98.17
24752;BME280;27246;52.376;4.628;2023-02-04T16:12:48;103614.47;;;8.55;97.56
24752;BME280;27246;52.376;4.628;2023-02-04T16:17:51;103619.69;;;8.45;98.09
24752;BME280;27246;52.376;4.628;2023-02-04T16:22:55;103628.66;;;8.34;97.91
24752;BME280;27246;52.376;4.628;2023-02-04T16:27:57;103625.22;;;8.31;98.75
24752;BME280;27246;52.376;4.628;2023-02-04T16:32:59;103632.84;;;8.40;98.46
24752;BME280;27246;52.376;4.628;2023-02-04T16:38:00;103627.78;;;8.34;97.54
24752;BME280;27246;52.376;4.628;2023-02-04T16:43:02;103626.00;;;8.33;98.74
24752;BME280;27246;52.376;4.628;2023-02-04T16:48:05;103633.22;;;8.48;97.76
24752;BME280;27246;52.376;4.628;2023-02-04T16:53:06;103631.50;;;8.33;97.59
24752;BME280;27246;52.376;4.628;2023-02-04T16:58:11;103631.50;;;8.33;97.88
24752;BME280;27246;52.376;4.628;2023-02-04T17:03:13;103638.16;;;8.29;97.70
24752;BME280;27246;52.376;4.628;2023-02-04T17:08:15;103628.69;;;8.47;98.47
24752;BME280;27246;52.376;4.628;2023-02-04T17:13:18;103628.69;;;8.47;97.61
24752;BME280;27246;52.376;4.628;2023-02-04T17:18:20;103627.31;;;8.54;97.32
24752;BME280;27246;52.376;4.628;2023-02-04T17:23:21;103640.59;;;8.48;97.06
24752;BME280;27246;52.376;4.628;2023-02-04T17:28:23;103643.47;;;8.32;97.15
24752;BME280;27246;52.376;4.628;2023-02-04T17:33:26;103650.84;;;8.31;97.63
24752;BME280;27246;52.376;4.628;2023-02-04T17:38:29;103662.47;;;8.35;98.09
24752;BME280;27246;52.376;4.628;2023-02-04T17:43:32;103650.72;;;8.33;97.87
24752;BME280;27246;52.376;4.628;2023-02-04T17:48:35;103652.41;;;8.35;98.23
24752;BME280;27246;52.376;4.628;2023-02-04T17:53:37;103646.00;;;8.35;97.87
24752;BME280;27246;52.376;4.628;2023-02-04T17:58:41;103646.69;;;8.38;98.49
24752;BME280;27246;52.376;4.628;2023-02-04T18:03:43;103647.50;;;8.26;97.92
24752;BME280;27246;52.376;4.628;2023-02-04T18:08:48;103641.94;;;8.13;98.39
24752;BME280;27246;52.376;4.628;2023-02-04T18:13:50;103642.03;;;8.12;98.85
24752;BME280;27246;52.376;4.628;2023-02-04T18:18:55;103647.81;;;8.21;98.08
24752;BME280;27246;52.376;4.628;2023-02-04T18:29:34;103656.34;;;8.02;98.40
24752;BME280;27246;52.376;4.628;2023-02-04T18:34:43;103659.69;;;8.08;99.98
24752;BME280;27246;52.376;4.628;2023-02-04T18:39:45;103656.22;;;8.18;99.03
24752;BME280;27246;52.376;4.628;2023-02-04T18:44:47;103660.53;;;8.23;98.83
24752;BME280;27246;52.376;4.628;2023-02-04T18:49:49;103667.22;;;8.18;99.12
24752;BME280;27246;52.376;4.628;2023-02-04T18:54:52;103671.34;;;8.26;99.58
24752;BME280;27246;52.376;4.628;2023-02-04T19:05:28;103676.53;;;8.30;99.44
24752;BME280;27246;52.376;4.628;2023-02-04T19:10:35;103677.31;;;8.32;100.00
24752;BME280;27246;52.376;4.628;2023-02-04T19:15:37;103671.34;;;8.26;100.00
24752;BME280;27246;52.376;4.628;2023-02-04T19:20:40;103668.38;;;8.29;100.00
24752;BME280;27246;52.376;4.628;2023-02-04T19:25:46;103661.59;;;8.34;100.00
24752;BME280;27246;52.376;4.628;2023-02-04T19:30:48;103669.88;;;8.20;100.00
24752;BME280;27246;52.376;4.628;2023-02-04T19:35:51;103661.44;;;8.23;100.00
24752;BME280;27246;52.376;4.628;2023-02-04T19:40:53;103653.31;;;8.07;100.00
24752;BME280;27246;52.376;4.628;2023-02-04T19:45:54;103644.09;;;7.94;100.00
24752;BME280;27246;52.376;4.628;2023-02-04T19:50:57;103639.31;;;7.83;100.00
24752;BME280;27246;52.376;4.628;2023-02-04T19:55:59;103631.72;;;7.72;100.00
24752;BME280;27246;52.376;4.628;2023-02-04T20:01:02;103635.88;;;7.65;100.00
24752;BME280;27246;52.376;4.628;2023-02-04T20:16:46;103650.97;;;7.87;100.00
24752;BME280;27246;52.376;4.628;2023-02-04T20:27:23;103675.16;;;8.09;100.00
24752;BME280;27246;52.376;4.628;2023-02-04T20:32:27;103667.44;;;8.01;100.00
24752;BME280;27246;52.376;4.628;2023-02-04T20:37:30;103654.69;;;7.86;100.00
24752;BME280;27246;52.376;4.628;2023-02-04T20:42:34;103637.84;;;7.77;100.00
24752;BME280;27246;52.376;4.628;2023-02-04T20:47:41;103629.28;;;7.68;100.00
24752;BME280;27246;52.376;4.628;2023-02-04T20:57:45;103629.78;;;7.60;100.00
24752;BME280;27246;52.376;4.628;2023-02-04T21:02:48;103624.28;;;7.74;100.00
24752;BME280;27246;52.376;4.628;2023-02-04T21:07:53;103626.75;;;7.79;100.00
24752;BME280;27246;52.376;4.628;2023-02-04T21:12:58;103623.50;;;7.72;100.00
24752;BME280;27246;52.376;4.628;2023-02-04T21:18:01;103628.31;;;7.83;100.00
24752;BME280;27246;52.376;4.628;2023-02-04T21:23:03;103648.09;;;7.88;100.00
24752;BME280;27246;52.376;4.628;2023-02-04T21:28:13;103645.84;;;7.80;100.00
24752;BME280;27246;52.376;4.628;2023-02-04T21:33:15;103644.00;;;7.81;100.00
24752;BME280;27246;52.376;4.628;2023-02-04T21:38:17;103645.28;;;7.90;100.00
24752;BME280;27246;52.376;4.628;2023-02-04T21:43:19;103649.03;;;7.89;100.00
24752;BME280;27246;52.376;4.628;2023-02-04T21:48:21;103648.03;;;7.90;100.00
24752;BME280;27246;52.376;4.628;2023-02-04T21:53:23;103651.38;;;7.95;100.00
24752;BME280;27246;52.376;4.628;2023-02-04T21:58:25;103648.09;;;7.88;100.00
24752;BME280;27246;52.376;4.628;2023-02-04T22:03:27;103651.56;;;7.92;100.00
24752;BME280;27246;52.376;4.628;2023-02-04T22:08:28;103656.84;;;7.95;100.00
24752;BME280;27246;52.376;4.628;2023-02-04T22:13:30;103661.94;;;8.01;100.00
24752;BME280;27246;52.376;4.628;2023-02-04T22:18:32;103661.16;;;7.99;100.00
24752;BME280;27246;52.376;4.628;2023-02-04T22:23:33;103662.75;;;8.03;100.00
24752;BME280;27246;52.376;4.628;2023-02-04T22:28:35;103667.13;;;8.06;100.00
24752;BME280;27246;52.376;4.628;2023-02-04T22:33:37;103648.22;;;8.01;100.00
24752;BME280;27246;52.376;4.628;2023-02-04T22:38:38;103636.25;;;7.88;100.00
24752;BME280;27246;52.376;4.628;2023-02-04T22:43:40;103633.13;;;7.79;100.00
24752;BME280;27246;52.376;4.628;2023-02-04T22:48:42;103629.97;;;7.86;100.00
24752;BME280;27246;52.376;4.628;2023-02-04T22:53:44;103626.06;;;7.75;100.00
24752;BME280;27246;52.376;4.628;2023-02-04T22:58:45;103608.81;;;7.73;100.00
24752;BME280;27246;52.376;4.628;2023-02-04T23:03:47;103598.63;;;7.61;100.00
24752;BME280;27246;52.376;4.628;2023-02-04T23:08:50;103605.47;;;7.68;100.00
24752;BME280;27246;52.376;4.628;2023-02-04T23:13:53;103611.34;;;7.76;100.00
24752;BME280;27246;52.376;4.628;2023-02-04T23:18:56;103608.91;;;7.72;100.00
24752;BME280;27246;52.376;4.628;2023-02-04T23:23:59;103607.03;;;7.72;100.00
24752;BME280;27246;52.376;4.628;2023-02-04T23:29:01;103576.47;;;7.78;100.00
24752;BME280;27246;52.376;4.628;2023-02-04T23:34:03;103567.47;;;7.62;100.00
24752;BME280;27246;52.376;4.628;2023-02-04T23:39:04;103567.19;;;7.67;100.00
24752;BME280;27246;52.376;4.628;2023-02-04T23:44:06;103577.75;;;7.73;100.00
24752;BME280;27246;52.376;4.628;2023-02-04T23:49:08;103555.13;;;7.69;100.00
24752;BME280;27246;52.376;4.628;2023-02-04T23:54:10;103538.75;;;7.68;100.00
24752;BME280;27246;52.376;4.628;2023-02-04T23:59:12;103534.16;;;7.54;100.00
